sensor_id;sensor_type;location;lat;lon;timestamp;temperature;humidity
27162;DHT22;54464;50.558;9.704;2023-03-01T00:01:15;-0.20;99.90
27162;DHT22;54464;50.558;9.704;2023-03-01T00:03:41;-0.20;99.90
27162;DHT22;54464;50.558;9.704;2023-03-01T00:06:07;-0.30;99.90
27162;DHT22;54464;50.558;9.704;2023-03-01T00:08:33;-0.30;99.90
27162;DHT22;54464;50.558;9.704;2023-03-01T00:11:08;-0.30;99.90
27162;DHT22;54464;50.558;9.704;2023-03-01T00:13:35;-0.40;99.90
27162;DHT22;54464;50.558;9.704;2023-03-01T00:16:09;-0.40;99.90
27162;DHT22;54464;50.558;9.704;2023-03-01T00:18:35;-0.40;99.90
27162;DHT22;54464;50.558;9.704;2023-03-01T00:21:01;-0.40;99.90
27162;DHT22;54464;50.558;9.704;2023-03-01T00:23:27;-0.40;99.90
27162;DHT22;54464;50.558;9.704;2023-03-01T00:25:53;-0.50;99.90
27162;DHT22;54464;50.558;9.704;2023-03-01T00:28:20;-0.50;99.90
27162;DHT22;54464;50.558;9.704;2023-03-01T00:30:46;-0.50;99.90
27162;DHT22;54464;50.558;9.704;2023-03-01T00:33:12;-0.50;99.90
27162;DHT22;54464;50.558;9.704;2023-03-01T00:35:37;-0.50;99.90
27162;DHT22;54464;50.558;9.704;2023-03-01T00:38:04;-0.50;99.90
27162;DHT22;54464;50.558;9.704;2023-03-01T00:40:32;-0.50;99.90
27162;DHT22;54464;50.558;9.704;2023-03-01T00:42:57;-0.60;99.90
27162;DHT22;54464;50.558;9.704;2023-03-01T00:45:24;-0.60;99.90
27162;DHT22;54464;50.558;9.704;2023-03-01T00:47:50;-0.60;99.90
27162;DHT22;54464;50.558;9.704;2023-03-01T00:50:17;-0.70;99.90
27162;DHT22;54464;50.558;9.704;2023-03-01T00:52:43;-0.60;99.90
27162;DHT22;54464;50.558;9.704;2023-03-01T00:55:09;-0.70;99.90
27162;DHT22;54464;50.558;9.704;2023-03-01T00:57:35;-0.70;99.90
27162;DHT22;54464;50.558;9.704;2023-03-01T01:00:02;-0.80;99.90
27162;DHT22;54464;50.558;9.704;2023-03-01T01:02:28;-0.70;99.90
27162;DHT22;54464;50.558;9.704;2023-03-01T01:04:54;-0.70;99.90
27162;DHT22;54464;50.558;9.704;2023-03-01T01:07:19;-0.80;99.90
27162;DHT22;54464;50.558;9.704;2023-03-01T01:09:48;-0.80;99.90
27162;DHT22;54464;50.558;9.704;2023-03-01T01:12:14;-0.80;99.90
27162;DHT22;54464;50.558;9.704;2023-03-01T01:14:39;-0.80;99.90
27162;DHT22;54464;50.558;9.704;2023-03-01T01:17:05;-0.80;99.90
27162;DHT22;54464;50.558;9.704;2023-03-01T01:19:31;-0.80;99.90
27162;DHT22;54464;50.558;9.704;2023-03-01T01:21:56;-0.80;99.90
27162;DHT22;54464;50.558;9.704;2023-03-01T01:24:22;-0.80;99.90
27162;DHT22;54464;50.558;9.704;2023-03-01T01:26:48;-0.80;99.90
27162;DHT22;54464;50.558;9.704;2023-03-01T01:29:14;-0.80;99.90
27162;DHT22;54464;50.558;9.704;2023-03-01T01:31:41;-0.80;99.90
27162;DHT22;54464;50.558;9.704;2023-03-01T01:34:09;-0.80;99.90
27162;DHT22;54464;50.558;9.704;2023-03-01T01:36:37;-0.80;99.90
27162;DHT22;54464;50.558;9.704;2023-03-01T01:39:03;-0.80;99.90
27162;DHT22;54464;50.558;9.704;2023-03-01T01:41:29;-0.80;99.90
27162;DHT22;54464;50.558;9.704;2023-03-01T01:44:21;-0.80;99.90
27162;DHT22;54464;50.558;9.704;2023-03-01T01:46:58;-0.80;99.90
27162;DHT22;54464;50.558;9.704;2023-03-01T01:49:36;-0.80;99.90
27162;DHT22;54464;50.558;9.704;2023-03-01T01:54:47;-0.70;99.90
27162;DHT22;54464;50.558;9.704;2023-03-01T01:57:18;-0.70;99.90
27162;DHT22;54464;50.558;9.704;2023-03-01T01:59:53;-0.70;99.90
27162;DHT22;54464;50.558;9.704;2023-03-01T02:02:20;-0.80;99.90
27162;DHT22;54464;50.558;9.704;2023-03-01T02:04:48;-0.70;99.90
27162;DHT22;54464;50.558;9.704;2023-03-01T02:07:17;-0.60;99.90
27162;DHT22;54464;50.558;9.704;2023-03-01T02:09:47;-0.80;99.90
27162;DHT22;54464;50.558;9.704;2023-03-01T02:12:15;-0.70;99.90
27162;DHT22;54464;50.558;9.704;2023-03-01T02:14:42;-0.80;99.90
27162;DHT22;54464;50.558;9.704;2023-03-01T02:17:09;-0.80;99.90
27162;DHT22;54464;50.558;9.704;2023-03-01T02:19:55;-0.80;99.90
27162;DHT22;54464;50.558;9.704;2023-03-01T02:22:31;-0.90;99.90
27162;DHT22;54464;50.558;9.704;2023-03-01T02:27:48;-0.90;99.90
27162;DHT22;54464;50.558;9.704;2023-03-01T02:30:16;-0.90;99.90
27162;DHT22;54464;50.558;9.704;2023-03-01T02:32:42;-0.90;99.90
27162;DHT22;54464;50.558;9.704;2023-03-01T02:35:13;-0.90;99.90
27162;DHT22;54464;50.558;9.704;2023-03-01T02:37:41;-0.80;99.90
27162;DHT22;54464;50.558;9.704;2023-03-01T02:40:15;-0.90;99.90
27162;DHT22;54464;50.558;9.704;2023-03-01T02:43:08;-0.90;99.90
27162;DHT22;54464;50.558;9.704;2023-03-01T02:45:35;-1.00;99.90
27162;DHT22;54464;50.558;9.704;2023-03-01T02:48:01;-1.00;99.90
27162;DHT22;54464;50.558;9.704;2023-03-01T02:53:21;-1.00;99.90
27162;DHT22;54464;50.558;9.704;2023-03-01T02:55:48;-1.00;99.90
27162;DHT22;54464;50.558;9.704;2023-03-01T02:58:14;-1.00;99.90
27162;DHT22;54464;50.558;9.704;2023-03-01T03:00:42;-1.10;99.90
27162;DHT22;54464;50.558;9.704;2023-03-01T03:03:17;-1.10;99.90
27162;DHT22;54464;50.558;9.704;2023-03-01T03:05:44;-1.10;99.90
27162;DHT22;54464;50.558;9.704;2023-03-01T03:08:10;-1.10;99.90
27162;DHT22;54464;50.558;9.704;2023-03-01T03:10:39;-1.10;99.90
27162;DHT22;54464;50.558;9.704;2023-03-01T03:13:07;-1.10;99.90
27162;DHT22;54464;50.558;9.704;2023-03-01T03:15:34;-1.10;99.90
27162;DHT22;54464;50.558;9.704;2023-03-01T03:18:03;-1.10;99.90
27162;DHT22;54464;50.558;9.704;2023-03-01T03:20:29;-1.10;99.90
27162;DHT22;54464;50.558;9.704;2023-03-01T03:22:56;-1.10;99.90
27162;DHT22;54464;50.558;9.704;2023-03-01T03:25:24;-1.00;99.90
27162;DHT22;54464;50.558;9.704;2023-03-01T03:27:52;-1.00;99.90
27162;DHT22;54464;50.558;9.704;2023-03-01T03:30:23;-1.00;99.90
27162;DHT22;54464;50.558;9.704;2023-03-01T03:32:49;-1.00;99.90
27162;DHT22;54464;50.558;9.704;2023-03-01T03:35:24;-1.10;99.90
27162;DHT22;54464;50.558;9.704;2023-03-01T03:37:50;-1.00;99.90
27162;DHT22;54464;50.558;9.704;2023-03-01T03:40:46;-1.00;99.90
27162;DHT22;54464;50.558;9.704;2023-03-01T03:43:20;-1.00;99.90
27162;DHT22;54464;50.558;9.704;2023-03-01T03:45:48;-0.90;99.90
27162;DHT22;54464;50.558;9.704;2023-03-01T03:48:14;-0.90;99.90
27162;DHT22;54464;50.558;9.704;2023-03-01T03:50:40;-0.90;99.90
27162;DHT22;54464;50.558;9.704;2023-03-01T03:53:09;-0.90;99.90
27162;DHT22;54464;50.558;9.704;2023-03-01T03:55:35;-0.90;99.90
27162;DHT22;54464;50.558;9.704;2023-03-01T03:58:05;-0.80;99.90
27162;DHT22;54464;50.558;9.704;2023-03-01T04:00:43;-0.90;99.90
27162;DHT22;54464;50.558;9.704;2023-03-01T04:03:10;-0.90;99.90
27162;DHT22;54464;50.558;9.704;2023-03-01T04:05:36;-0.90;99.90
27162;DHT22;54464;50.558;9.704;2023-03-01T04:08:03;-0.90;99.90
27162;DHT22;54464;50.558;9.704;2023-03-01T04:10:36;-0.90;99.90
27162;DHT22;54464;50.558;9.704;2023-03-01T04:13:03;-0.90;99.90
27162;DHT22;54464;50.558;9.704;2023-03-01T04:15:30;-0.90;99.90
27162;DHT22;54464;50.558;9.704;2023-03-01T04:17:56;-1.00;99.90
27162;DHT22;54464;50.558;9.704;2023-03-01T04:20:24;-0.90;99.90
27162;DHT22;54464;50.558;9.704;2023-03-01T04:23:05;-1.00;99.90
27162;DHT22;54464;50.558;9.704;2023-03-01T04:25:44;-1.00;99.90
27162;DHT22;54464;50.558;9.704;2023-03-01T04:28:10;-1.00;99.90
27162;DHT22;54464;50.558;9.704;2023-03-01T04:30:37;-1.10;99.90
27162;DHT22;54464;50.558;9.704;2023-03-01T04:33:05;-1.10;99.90
27162;DHT22;54464;50.558;9.704;2023-03-01T04:35:32;-1.10;99.90
27162;DHT22;54464;50.558;9.704;2023-03-01T04:37:58;-1.00;99.90
27162;DHT22;54464;50.558;9.704;2023-03-01T04:40:24;-1.10;99.90
27162;DHT22;54464;50.558;9.704;2023-03-01T04:42:50;-1.10;99.90
27162;DHT22;54464;50.558;9.704;2023-03-01T04:45:16;-1.10;99.90
27162;DHT22;54464;50.558;9.704;2023-03-01T04:47:43;-1.10;99.90
27162;DHT22;54464;50.558;9.704;2023-03-01T04:50:10;-1.10;99.90
27162;DHT22;54464;50.558;9.704;2023-03-01T04:52:36;-1.10;99.90
27162;DHT22;54464;50.558;9.704;2023-03-01T04:55:02;-1.10;99.90
27162;DHT22;54464;50.558;9.704;2023-03-01T04:57:29;-1.10;99.90
27162;DHT22;54464;50.558;9.704;2023-03-01T04:59:55;-1.10;99.90
27162;DHT22;54464;50.558;9.704;2023-03-01T05:02:20;-1.10;99.90
27162;DHT22;54464;50.558;9.704;2023-03-01T05:04:46;-1.10;99.90
27162;DHT22;54464;50.558;9.704;2023-03-01T05:07:12;-1.20;99.90
27162;DHT22;54464;50.558;9.704;2023-03-01T05:09:38;-1.20;99.90
27162;DHT22;54464;50.558;9.704;2023-03-01T05:12:04;-1.20;99.90
27162;DHT22;54464;50.558;9.704;2023-03-01T05:14:30;-1.20;99.90
27162;DHT22;54464;50.558;9.704;2023-03-01T05:16:55;-1.20;99.90
27162;DHT22;54464;50.558;9.704;2023-03-01T05:19:29;-1.20;99.90
27162;DHT22;54464;50.558;9.704;2023-03-01T05:21:56;-1.20;99.90
27162;DHT22;54464;50.558;9.704;2023-03-01T05:24:33;-1.30;99.90
27162;DHT22;54464;50.558;9.704;2023-03-01T05:27:00;-1.30;99.90
27162;DHT22;54464;50.558;9.704;2023-03-01T05:29:27;-1.30;99.90
27162;DHT22;54464;50.558;9.704;2023-03-01T05:31:58;-1.30;99.90
27162;DHT22;54464;50.558;9.704;2023-03-01T05:34:26;-1.40;99.90
27162;DHT22;54464;50.558;9.704;2023-03-01T05:36:52;-1.40;99.90
27162;DHT22;54464;50.558;9.704;2023-03-01T05:39:25;-1.40;99.90
27162;DHT22;54464;50.558;9.704;2023-03-01T05:41:52;-1.40;99.90
27162;DHT22;54464;50.558;9.704;2023-03-01T05:44:19;-1.40;99.90
27162;DHT22;54464;50.558;9.704;2023-03-01T05:46:44;-1.50;99.90
27162;DHT22;54464;50.558;9.704;2023-03-01T05:49:11;-1.40;99.90
27162;DHT22;54464;50.558;9.704;2023-03-01T05:51:39;-1.40;99.90
27162;DHT22;54464;50.558;9.704;2023-03-01T05:54:05;-1.40;99.90
27162;DHT22;54464;50.558;9.704;2023-03-01T05:56:33;-1.50;99.90
27162;DHT22;54464;50.558;9.704;2023-03-01T05:58:59;-1.40;99.90
27162;DHT22;54464;50.558;9.704;2023-03-01T06:01:25;-1.40;99.90
27162;DHT22;54464;50.558;9.704;2023-03-01T06:03:51;-1.50;99.90
27162;DHT22;54464;50.558;9.704;2023-03-01T06:06:16;-1.50;99.90
27162;DHT22;54464;50.558;9.704;2023-03-01T06:08:42;-1.50;99.90
27162;DHT22;54464;50.558;9.704;2023-03-01T06:11:08;-1.50;99.90
27162;DHT22;54464;50.558;9.704;2023-03-01T06:13:33;-1.50;99.90
27162;DHT22;54464;50.558;9.704;2023-03-01T06:15:59;-1.50;99.90
27162;DHT22;54464;50.558;9.704;2023-03-01T06:18:25;-1.50;99.90
27162;DHT22;54464;50.558;9.704;2023-03-01T06:20:54;-1.40;99.90
27162;DHT22;54464;50.558;9.704;2023-03-01T06:23:20;-1.50;99.90
27162;DHT22;54464;50.558;9.704;2023-03-01T06:25:46;-1.50;99.90
27162;DHT22;54464;50.558;9.704;2023-03-01T06:28:12;-1.50;99.90
27162;DHT22;54464;50.558;9.704;2023-03-01T06:30:37;-1.50;99.90
27162;DHT22;54464;50.558;9.704;2023-03-01T06:33:03;-1.50;99.90
27162;DHT22;54464;50.558;9.704;2023-03-01T06:35:29;-1.50;99.90
27162;DHT22;54464;50.558;9.704;2023-03-01T06:37:56;-1.60;99.90
27162;DHT22;54464;50.558;9.704;2023-03-01T06:40:22;-1.60;99.90
27162;DHT22;54464;50.558;9.704;2023-03-01T06:42:50;-1.50;99.90
27162;DHT22;54464;50.558;9.704;2023-03-01T06:45:16;-1.50;99.90
27162;DHT22;54464;50.558;9.704;2023-03-01T06:47:42;-1.50;99.90
27162;DHT22;54464;50.558;9.704;2023-03-01T06:50:08;-1.50;99.90
27162;DHT22;54464;50.558;9.704;2023-03-01T06:52:34;-1.50;99.90
27162;DHT22;54464;50.558;9.704;2023-03-01T06:55:00;-1.50;99.90
27162;DHT22;54464;50.558;9.704;2023-03-01T06:57:26;-1.40;99.90
27162;DHT22;54464;50.558;9.704;2023-03-01T06:59:52;-1.40;99.90
27162;DHT22;54464;50.558;9.704;2023-03-01T07:02:17;-1.40;99.90
27162;DHT22;54464;50.558;9.704;2023-03-01T07:04:43;-1.30;99.90
27162;DHT22;54464;50.558;9.704;2023-03-01T07:07:09;-1.30;99.90
27162;DHT22;54464;50.558;9.704;2023-03-01T07:09:34;-1.20;99.90
27162;DHT22;54464;50.558;9.704;2023-03-01T07:12:00;-1.20;99.90
27162;DHT22;54464;50.558;9.704;2023-03-01T07:14:26;-1.20;99.90
27162;DHT22;54464;50.558;9.704;2023-03-01T07:16:55;-1.10;99.90
27162;DHT22;54464;50.558;9.704;2023-03-01T07:19:21;-1.00;99.90
27162;DHT22;54464;50.558;9.704;2023-03-01T07:21:47;-0.90;99.90
27162;DHT22;54464;50.558;9.704;2023-03-01T07:24:13;-0.70;99.90
27162;DHT22;54464;50.558;9.704;2023-03-01T07:26:38;-0.60;99.90
27162;DHT22;54464;50.558;9.704;2023-03-01T07:29:06;-0.60;99.90
27162;DHT22;54464;50.558;9.704;2023-03-01T07:31:32;-0.50;99.90
27162;DHT22;54464;50.558;9.704;2023-03-01T07:33:58;-0.50;99.90
27162;DHT22;54464;50.558;9.704;2023-03-01T07:36:23;-0.40;99.90
27162;DHT22;54464;50.558;9.704;2023-03-01T07:38:49;-0.30;99.90
27162;DHT22;54464;50.558;9.704;2023-03-01T07:41:15;-0.20;99.90
27162;DHT22;54464;50.558;9.704;2023-03-01T07:43:41;-0.10;99.90
27162;DHT22;54464;50.558;9.704;2023-03-01T07:46:07;0.00;99.90
27162;DHT22;54464;50.558;9.704;2023-03-01T07:48:33;0.10;99.90
27162;DHT22;54464;50.558;9.704;2023-03-01T07:50:59;0.20;99.90
27162;DHT22;54464;50.558;9.704;2023-03-01T07:53:25;0.40;99.90
27162;DHT22;54464;50.558;9.704;2023-03-01T07:56:03;0.50;99.90
27162;DHT22;54464;50.558;9.704;2023-03-01T07:58:30;0.50;99.90
27162;DHT22;54464;50.558;9.704;2023-03-01T08:00:55;0.70;99.90
27162;DHT22;54464;50.558;9.704;2023-03-01T08:03:21;0.80;99.90
27162;DHT22;54464;50.558;9.704;2023-03-01T08:05:47;0.80;99.90
27162;DHT22;54464;50.558;9.704;2023-03-01T08:08:12;0.90;99.90
27162;DHT22;54464;50.558;9.704;2023-03-01T08:10:38;1.00;99.90
27162;DHT22;54464;50.558;9.704;2023-03-01T08:13:03;1.10;99.90
27162;DHT22;54464;50.558;9.704;2023-03-01T08:15:29;1.20;99.90
27162;DHT22;54464;50.558;9.704;2023-03-01T08:17:55;1.20;99.90
27162;DHT22;54464;50.558;9.704;2023-03-01T08:20:20;1.40;99.90
27162;DHT22;54464;50.558;9.704;2023-03-01T08:22:46;1.50;99.90
27162;DHT22;54464;50.558;9.704;2023-03-01T08:25:11;1.60;99.90
27162;DHT22;54464;50.558;9.704;2023-03-01T08:27:37;1.70;99.90
27162;DHT22;54464;50.558;9.704;2023-03-01T08:30:03;1.80;99.90
27162;DHT22;54464;50.558;9.704;2023-03-01T08:32:29;1.90;99.90
27162;DHT22;54464;50.558;9.704;2023-03-01T08:34:55;2.00;99.90
27162;DHT22;54464;50.558;9.704;2023-03-01T08:37:20;2.20;99.90
27162;DHT22;54464;50.558;9.704;2023-03-01T08:39:46;2.20;99.90
27162;DHT22;54464;50.558;9.704;2023-03-01T08:42:12;2.40;99.90
27162;DHT22;54464;50.558;9.704;2023-03-01T08:44:38;2.50;99.90
27162;DHT22;54464;50.558;9.704;2023-03-01T08:47:03;2.70;99.90
27162;DHT22;54464;50.558;9.704;2023-03-01T08:49:30;2.90;99.90
27162;DHT22;54464;50.558;9.704;2023-03-01T08:51:57;3.00;99.70
27162;DHT22;54464;50.558;9.704;2023-03-01T08:54:23;3.10;99.90
27162;DHT22;54464;50.558;9.704;2023-03-01T08:56:49;3.20;99.50
27162;DHT22;54464;50.558;9.704;2023-03-01T08:59:16;3.30;99.40
27162;DHT22;54464;50.558;9.704;2023-03-01T09:01:42;3.50;99.80
27162;DHT22;54464;50.558;9.704;2023-03-01T09:04:12;3.60;98.60
27162;DHT22;54464;50.558;9.704;2023-03-01T09:06:38;3.70;99.30
27162;DHT22;54464;50.558;9.704;2023-03-01T09:09:05;3.70;98.30
27162;DHT22;54464;50.558;9.704;2023-03-01T09:11:31;3.80;98.20
27162;DHT22;54464;50.558;9.704;2023-03-01T09:13:56;3.90;98.30
27162;DHT22;54464;50.558;9.704;2023-03-01T09:16:24;4.10;97.80
27162;DHT22;54464;50.558;9.704;2023-03-01T09:18:51;4.30;97.60
27162;DHT22;54464;50.558;9.704;2023-03-01T09:21:18;4.50;97.10
27162;DHT22;54464;50.558;9.704;2023-03-01T09:23:45;4.60;96.20
27162;DHT22;54464;50.558;9.704;2023-03-01T09:26:16;4.60;96.30
27162;DHT22;54464;50.558;9.704;2023-03-01T09:28:45;4.70;97.20
27162;DHT22;54464;50.558;9.704;2023-03-01T09:31:12;4.90;96.10
27162;DHT22;54464;50.558;9.704;2023-03-01T09:33:39;4.90;96.10
27162;DHT22;54464;50.558;9.704;2023-03-01T09:36:07;5.10;96.50
27162;DHT22;54464;50.558;9.704;2023-03-01T09:38:33;5.30;95.50
27162;DHT22;54464;50.558;9.704;2023-03-01T09:41:02;5.40;95.80
27162;DHT22;54464;50.558;9.704;2023-03-01T09:46:07;5.50;94.90
27162;DHT22;54464;50.558;9.704;2023-03-01T09:48:51;5.60;94.70
27162;DHT22;54464;50.558;9.704;2023-03-01T09:51:26;5.80;94.50
27162;DHT22;54464;50.558;9.704;2023-03-01T09:53:52;6.00;94.30
27162;DHT22;54464;50.558;9.704;2023-03-01T09:56:24;6.10;94.40
27162;DHT22;54464;50.558;9.704;2023-03-01T10:01:58;6.30;93.60
27162;DHT22;54464;50.558;9.704;2023-03-01T10:04:49;6.60;94.10
27162;DHT22;54464;50.558;9.704;2023-03-01T10:07:48;6.80;92.90
27162;DHT22;54464;50.558;9.704;2023-03-01T10:10:31;7.20;92.20
27162;DHT22;54464;50.558;9.704;2023-03-01T10:13:00;7.30;91.50
27162;DHT22;54464;50.558;9.704;2023-03-01T10:15:36;7.60;91.80
27162;DHT22;54464;50.558;9.704;2023-03-01T10:18:09;7.70;91.00
27162;DHT22;54464;50.558;9.704;2023-03-01T10:20:52;7.80;90.40
27162;DHT22;54464;50.558;9.704;2023-03-01T10:23:18;7.90;90.60
27162;DHT22;54464;50.558;9.704;2023-03-01T10:25:51;7.90;90.50
27162;DHT22;54464;50.558;9.704;2023-03-01T10:28:31;8.00;91.10
27162;DHT22;54464;50.558;9.704;2023-03-01T10:31:01;8.00;90.50
27162;DHT22;54464;50.558;9.704;2023-03-01T10:33:31;8.00;91.00
27162;DHT22;54464;50.558;9.704;2023-03-01T10:35:57;8.00;90.60
27162;DHT22;54464;50.558;9.704;2023-03-01T10:38:23;8.20;91.00
27162;DHT22;54464;50.558;9.704;2023-03-01T10:41:09;8.40;90.60
27162;DHT22;54464;50.558;9.704;2023-03-01T10:43:48;9.30;89.80
27162;DHT22;54464;50.558;9.704;2023-03-01T10:46:36;11.10;83.70
27162;DHT22;54464;50.558;9.704;2023-03-01T10:49:16;12.90;78.90
27162;DHT22;54464;50.558;9.704;2023-03-01T10:51:44;14.00;74.70
27162;DHT22;54464;50.558;9.704;2023-03-01T10:56:56;15.80;68.20
27162;DHT22;54464;50.558;9.704;2023-03-01T11:02:17;17.00;65.00
27162;DHT22;54464;50.558;9.704;2023-03-01T11:05:13;17.20;64.60
27162;DHT22;54464;50.558;9.704;2023-03-01T11:07:55;17.80;62.10
27162;DHT22;54464;50.558;9.704;2023-03-01T11:10:33;18.30;61.40
27162;DHT22;54464;50.558;9.704;2023-03-01T11:13:29;18.60;60.50
27162;DHT22;54464;50.558;9.704;2023-03-01T11:16:03;18.90;59.30
27162;DHT22;54464;50.558;9.704;2023-03-01T11:18:31;19.10;58.80
27162;DHT22;54464;50.558;9.704;2023-03-01T11:20:59;19.50;57.30
27162;DHT22;54464;50.558;9.704;2023-03-01T11:23:28;19.30;58.60
27162;DHT22;54464;50.558;9.704;2023-03-01T11:26:01;19.70;57.40
27162;DHT22;54464;50.558;9.704;2023-03-01T11:28:29;20.00;56.40
27162;DHT22;54464;50.558;9.704;2023-03-01T11:31:09;20.10;57.20
27162;DHT22;54464;50.558;9.704;2023-03-01T11:33:48;20.00;56.90
27162;DHT22;54464;50.558;9.704;2023-03-01T11:36:35;20.30;56.10
27162;DHT22;54464;50.558;9.704;2023-03-01T11:41:52;21.00;54.40
27162;DHT22;54464;50.558;9.704;2023-03-01T11:44:28;20.70;55.50
27162;DHT22;54464;50.558;9.704;2023-03-01T11:53:00;21.40;54.50
27162;DHT22;54464;50.558;9.704;2023-03-01T12:07:01;20.90;53.70
27162;DHT22;54464;50.558;9.704;2023-03-01T12:21:23;16.40;60.90
27162;DHT22;54464;50.558;9.704;2023-03-01T12:50:52;20.50;54.20
27162;DHT22;54464;50.558;9.704;2023-03-01T12:53:35;19.60;55.60
27162;DHT22;54464;50.558;9.704;2023-03-01T12:56:18;18.60;57.50
27162;DHT22;54464;50.558;9.704;2023-03-01T12:59:07;16.90;59.90
27162;DHT22;54464;50.558;9.704;2023-03-01T13:07:44;13.10;68.00
27162;DHT22;54464;50.558;9.704;2023-03-01T13:10:33;12.60;70.00
27162;DHT22;54464;50.558;9.704;2023-03-01T13:13:22;12.20;71.00
27162;DHT22;54464;50.558;9.704;2023-03-01T13:15:48;12.00;72.40
27162;DHT22;54464;50.558;9.704;2023-03-01T13:33:57;10.70;78.80
27162;DHT22;54464;50.558;9.704;2023-03-01T13:44:37;10.80;76.80
27162;DHT22;54464;50.558;9.704;2023-03-01T13:49:42;10.70;78.40
27162;DHT22;54464;50.558;9.704;2023-03-01T13:54:56;11.20;76.40
27162;DHT22;54464;50.558;9.704;2023-03-01T13:57:28;11.20;76.80
27162;DHT22;54464;50.558;9.704;2023-03-01T13:59:55;11.00;77.90
27162;DHT22;54464;50.558;9.704;2023-03-01T14:02:21;10.90;77.20
27162;DHT22;54464;50.558;9.704;2023-03-01T14:04:58;11.30;77.70
27162;DHT22;54464;50.558;9.704;2023-03-01T14:07:24;12.80;74.90
27162;DHT22;54464;50.558;9.704;2023-03-01T14:09:56;14.40;69.50
27162;DHT22;54464;50.558;9.704;2023-03-01T14:12:46;14.90;66.80
27162;DHT22;54464;50.558;9.704;2023-03-01T14:15:31;13.90;67.80
27162;DHT22;54464;50.558;9.704;2023-03-01T14:18:10;12.30;71.50
27162;DHT22;54464;50.558;9.704;2023-03-01T14:20:43;11.10;75.90
27162;DHT22;54464;50.558;9.704;2023-03-01T14:23:18;10.20;79.20
27162;DHT22;54464;50.558;9.704;2023-03-01T14:25:52;9.80;79.70
27162;DHT22;54464;50.558;9.704;2023-03-01T14:28:24;9.50;80.90
27162;DHT22;54464;50.558;9.704;2023-03-01T14:30:56;9.20;81.60
27162;DHT22;54464;50.558;9.704;2023-03-01T14:33:34;9.10;83.40
27162;DHT22;54464;50.558;9.704;2023-03-01T14:41:00;9.20;82.40
27162;DHT22;54464;50.558;9.704;2023-03-01T14:43:29;9.30;82.90
27162;DHT22;54464;50.558;9.704;2023-03-01T14:45:55;9.30;81.30
27162;DHT22;54464;50.558;9.704;2023-03-01T14:48:21;9.40;81.90
27162;DHT22;54464;50.558;9.704;2023-03-01T14:50:47;9.40;80.80
27162;DHT22;54464;50.558;9.704;2023-03-01T14:53:20;9.40;81.80
27162;DHT22;54464;50.558;9.704;2023-03-01T14:55:50;9.40;81.90
27162;DHT22;54464;50.558;9.704;2023-03-01T14:58:20;9.40;81.60
27162;DHT22;54464;50.558;9.704;2023-03-01T15:00:55;9.40;82.60
27162;DHT22;54464;50.558;9.704;2023-03-01T15:03:35;9.40;81.10
27162;DHT22;54464;50.558;9.704;2023-03-01T15:06:03;9.30;81.90
27162;DHT22;54464;50.558;9.704;2023-03-01T15:08:31;9.30;81.20
27162;DHT22;54464;50.558;9.704;2023-03-01T15:13:40;9.10;82.20
27162;DHT22;54464;50.558;9.704;2023-03-01T15:16:18;9.00;82.60
27162;DHT22;54464;50.558;9.704;2023-03-01T15:18:58;9.00;82.10
27162;DHT22;54464;50.558;9.704;2023-03-01T15:21:38;9.00;82.90
27162;DHT22;54464;50.558;9.704;2023-03-01T15:24:17;8.90;82.40
27162;DHT22;54464;50.558;9.704;2023-03-01T15:29:30;8.80;82.90
27162;DHT22;54464;50.558;9.704;2023-03-01T15:32:22;8.70;83.00
27162;DHT22;54464;50.558;9.704;2023-03-01T15:34:49;8.60;83.00
27162;DHT22;54464;50.558;9.704;2023-03-01T15:40:28;8.60;83.50
27162;DHT22;54464;50.558;9.704;2023-03-01T15:43:01;8.60;82.80
27162;DHT22;54464;50.558;9.704;2023-03-01T15:45:29;8.60;83.00
27162;DHT22;54464;50.558;9.704;2023-03-01T15:48:03;8.50;83.40
27162;DHT22;54464;50.558;9.704;2023-03-01T15:50:32;8.40;84.80
27162;DHT22;54464;50.558;9.704;2023-03-01T15:53:00;8.20;84.30
27162;DHT22;54464;50.558;9.704;2023-03-01T15:55:28;8.20;83.60
27162;DHT22;54464;50.558;9.704;2023-03-01T15:58:09;8.20;83.10
27162;DHT22;54464;50.558;9.704;2023-03-01T16:00:35;8.20;83.30
27162;DHT22;54464;50.558;9.704;2023-03-01T16:03:01;8.20;83.80
27162;DHT22;54464;50.558;9.704;2023-03-01T16:05:30;8.10;83.50
27162;DHT22;54464;50.558;9.704;2023-03-01T16:07:56;8.00;84.00
27162;DHT22;54464;50.558;9.704;2023-03-01T16:10:22;8.00;84.10
27162;DHT22;54464;50.558;9.704;2023-03-01T16:12:49;7.80;83.80
27162;DHT22;54464;50.558;9.704;2023-03-01T16:15:28;7.70;83.90
27162;DHT22;54464;50.558;9.704;2023-03-01T16:17:54;7.60;84.80
27162;DHT22;54464;50.558;9.704;2023-03-01T16:20:20;7.50;84.50
27162;DHT22;54464;50.558;9.704;2023-03-01T16:22:46;7.40;84.40
27162;DHT22;54464;50.558;9.704;2023-03-01T16:25:14;7.30;85.10
27162;DHT22;54464;50.558;9.704;2023-03-01T16:27:48;7.10;85.20
27162;DHT22;54464;50.558;9.704;2023-03-01T16:30:16;7.00;86.40
27162;DHT22;54464;50.558;9.704;2023-03-01T16:32:44;6.90;86.40
27162;DHT22;54464;50.558;9.704;2023-03-01T16:35:11;6.80;87.10
27162;DHT22;54464;50.558;9.704;2023-03-01T16:37:38;6.70;87.40
27162;DHT22;54464;50.558;9.704;2023-03-01T16:40:05;6.60;88.00
27162;DHT22;54464;50.558;9.704;2023-03-01T16:42:36;6.50;88.40
27162;DHT22;54464;50.558;9.704;2023-03-01T16:45:03;6.30;89.00
27162;DHT22;54464;50.558;9.704;2023-03-01T16:47:29;6.20;89.70
27162;DHT22;54464;50.558;9.704;2023-03-01T16:49:54;6.00;90.00
27162;DHT22;54464;50.558;9.704;2023-03-01T16:52:21;6.00;90.10
27162;DHT22;54464;50.558;9.704;2023-03-01T16:54:48;5.90;90.30
27162;DHT22;54464;50.558;9.704;2023-03-01T16:57:14;5.80;90.40
27162;DHT22;54464;50.558;9.704;2023-03-01T16:59:40;5.70;90.80
27162;DHT22;54464;50.558;9.704;2023-03-01T17:02:08;5.60;91.20
27162;DHT22;54464;50.558;9.704;2023-03-01T17:04:36;5.40;91.70
27162;DHT22;54464;50.558;9.704;2023-03-01T17:07:02;5.30;91.80
27162;DHT22;54464;50.558;9.704;2023-03-01T17:09:28;5.30;92.00
27162;DHT22;54464;50.558;9.704;2023-03-01T17:11:54;5.10;92.30
27162;DHT22;54464;50.558;9.704;2023-03-01T17:14:20;5.00;92.50
27162;DHT22;54464;50.558;9.704;2023-03-01T17:16:46;5.00;92.80
27162;DHT22;54464;50.558;9.704;2023-03-01T17:19:12;4.90;93.00
27162;DHT22;54464;50.558;9.704;2023-03-01T17:21:43;4.80;92.90
27162;DHT22;54464;50.558;9.704;2023-03-01T17:24:09;4.80;93.20
27162;DHT22;54464;50.558;9.704;2023-03-01T17:26:35;4.70;93.30
27162;DHT22;54464;50.558;9.704;2023-03-01T17:29:02;4.60;93.60
27162;DHT22;54464;50.558;9.704;2023-03-01T17:31:30;4.60;93.70
27162;DHT22;54464;50.558;9.704;2023-03-01T17:33:55;4.50;93.90
27162;DHT22;54464;50.558;9.704;2023-03-01T17:36:21;4.50;94.10
27162;DHT22;54464;50.558;9.704;2023-03-01T17:38:48;4.40;94.30
27162;DHT22;54464;50.558;9.704;2023-03-01T17:41:14;4.40;94.60
27162;DHT22;54464;50.558;9.704;2023-03-01T17:43:42;4.30;94.70
27162;DHT22;54464;50.558;9.704;2023-03-01T17:46:08;4.30;94.80
27162;DHT22;54464;50.558;9.704;2023-03-01T17:48:34;4.30;95.00
27162;DHT22;54464;50.558;9.704;2023-03-01T17:51:04;4.20;95.30
27162;DHT22;54464;50.558;9.704;2023-03-01T17:53:29;4.10;95.60
27162;DHT22;54464;50.558;9.704;2023-03-01T17:56:00;4.00;95.60
27162;DHT22;54464;50.558;9.704;2023-03-01T17:58:26;4.00;95.60